sensor_id;sensor_type;location;lat;lon;timestamp;P1;durP1;ratioP1;P2;durP2;ratioP2
1402;SDS011;696;48.546;9.896;2022-12-07T00:01:09;12.50;;;9.55;;
1402;SDS011;696;48.546;9.896;2022-12-07T00:06:01;13.32;;;8.68;;
1402;SDS011;696;48.546;9.896;2022-12-07T00:08:27;15.63;;;10.40;;
1402;SDS011;696;48.546;9.896;2022-12-07T00:10:52;17.27;;;10.50;;
1402;SDS011;696;48.546;9.896;2022-12-07T00:13:18;12.90;;;8.90;;
1402;SDS011;696;48.546;9.896;2022-12-07T00:15:43;19.77;;;10.20;;
1402;SDS011;696;48.546;9.896;2022-12-07T00:18:09;14.85;;;9.40;;
1402;SDS011;696;48.546;9.896;2022-12-07T00:20:34;23.52;;;9.85;;
1402;SDS011;696;48.546;9.896;2022-12-07T00:22:59;15.98;;;10.55;;
1402;SDS011;696;48.546;9.896;2022-12-07T00:25:25;14.52;;;9.13;;
1402;SDS011;696;48.546;9.896;2022-12-07T00:27:52;14.10;;;9.25;;
1402;SDS011;696;48.546;9.896;2022-12-07T00:30:20;16.67;;;10.02;;
1402;SDS011;696;48.546;9.896;2022-12-07T00:32:46;13.05;;;8.80;;
1402;SDS011;696;48.546;9.896;2022-12-07T00:35:11;14.18;;;10.18;;
1402;SDS011;696;48.546;9.896;2022-12-07T00:37:36;15.93;;;10.32;;
1402;SDS011;696;48.546;9.896;2022-12-07T00:40:02;17.60;;;10.23;;
1402;SDS011;696;48.546;9.896;2022-12-07T00:42:27;22.35;;;12.32;;
1402;SDS011;696;48.546;9.896;2022-12-07T00:44:52;18.52;;;11.30;;
1402;SDS011;696;48.546;9.896;2022-12-07T00:47:18;17.63;;;10.30;;
1402;SDS011;696;48.546;9.896;2022-12-07T00:49:43;17.42;;;10.82;;
1402;SDS011;696;48.546;9.896;2022-12-07T00:52:08;21.65;;;11.65;;
1402;SDS011;696;48.546;9.896;2022-12-07T00:54:34;17.10;;;10.55;;
1402;SDS011;696;48.546;9.896;2022-12-07T00:56:59;19.58;;;11.52;;
1402;SDS011;696;48.546;9.896;2022-12-07T00:59:24;20.38;;;12.00;;
1402;SDS011;696;48.546;9.896;2022-12-07T01:01:50;21.65;;;10.82;;
1402;SDS011;696;48.546;9.896;2022-12-07T01:04:15;20.77;;;10.75;;
1402;SDS011;696;48.546;9.896;2022-12-07T01:06:40;20.38;;;11.43;;
1402;SDS011;696;48.546;9.896;2022-12-07T01:09:06;22.58;;;12.18;;
1402;SDS011;696;48.546;9.896;2022-12-07T01:11:31;22.85;;;12.65;;
1402;SDS011;696;48.546;9.896;2022-12-07T01:13:57;31.08;;;15.10;;
1402;SDS011;696;48.546;9.896;2022-12-07T01:16:25;30.92;;;16.60;;
1402;SDS011;696;48.546;9.896;2022-12-07T01:18:52;28.85;;;16.02;;
1402;SDS011;696;48.546;9.896;2022-12-07T01:21:19;30.00;;;14.80;;
1402;SDS011;696;48.546;9.896;2022-12-07T01:23:49;30.85;;;14.32;;
1402;SDS011;696;48.546;9.896;2022-12-07T01:26:16;20.83;;;12.43;;
1402;SDS011;696;48.546;9.896;2022-12-07T01:28:43;20.50;;;12.57;;
1402;SDS011;696;48.546;9.896;2022-12-07T01:31:10;21.85;;;13.57;;
1402;SDS011;696;48.546;9.896;2022-12-07T01:33:37;19.23;;;12.45;;
1402;SDS011;696;48.546;9.896;2022-12-07T01:36:04;24.27;;;12.45;;
1402;SDS011;696;48.546;9.896;2022-12-07T01:38:34;18.73;;;11.85;;
1402;SDS011;696;48.546;9.896;2022-12-07T01:41:00;24.92;;;12.00;;
1402;SDS011;696;48.546;9.896;2022-12-07T01:43:27;17.88;;;10.18;;
1402;SDS011;696;48.546;9.896;2022-12-07T01:45:53;15.43;;;11.02;;
1402;SDS011;696;48.546;9.896;2022-12-07T01:48:20;22.73;;;11.20;;
1402;SDS011;696;48.546;9.896;2022-12-07T01:50:48;19.38;;;10.15;;
1402;SDS011;696;48.546;9.896;2022-12-07T01:53:15;17.17;;;10.90;;
1402;SDS011;696;48.546;9.896;2022-12-07T01:55:42;18.65;;;10.18;;
1402;SDS011;696;48.546;9.896;2022-12-07T01:58:09;15.85;;;10.30;;
1402;SDS011;696;48.546;9.896;2022-12-07T02:00:35;15.93;;;10.20;;
1402;SDS011;696;48.546;9.896;2022-12-07T02:03:08;18.27;;;10.48;;
1402;SDS011;696;48.546;9.896;2022-12-07T02:05:37;18.63;;;10.23;;
1402;SDS011;696;48.546;9.896;2022-12-07T02:08:03;17.83;;;9.80;;
1402;SDS011;696;48.546;9.896;2022-12-07T02:10:30;20.67;;;10.30;;
1402;SDS011;696;48.546;9.896;2022-12-07T02:13:04;18.42;;;10.85;;
1402;SDS011;696;48.546;9.896;2022-12-07T02:29:20;19.30;;;10.60;;
1402;SDS011;696;48.546;9.896;2022-12-07T02:31:50;18.13;;;10.40;;
1402;SDS011;696;48.546;9.896;2022-12-07T02:37:03;16.52;;;9.88;;
1402;SDS011;696;48.546;9.896;2022-12-07T02:39:46;17.85;;;10.10;;
1402;SDS011;696;48.546;9.896;2022-12-07T02:42:17;16.73;;;9.23;;
1402;SDS011;696;48.546;9.896;2022-12-07T02:44:47;12.40;;;9.20;;
1402;SDS011;696;48.546;9.896;2022-12-07T02:47:13;15.13;;;9.27;;
1402;SDS011;696;48.546;9.896;2022-12-07T02:49:40;16.20;;;10.35;;
1402;SDS011;696;48.546;9.896;2022-12-07T02:52:05;15.80;;;10.02;;
1402;SDS011;696;48.546;9.896;2022-12-07T02:54:31;15.38;;;9.68;;
1402;SDS011;696;48.546;9.896;2022-12-07T02:56:59;14.00;;;9.52;;
1402;SDS011;696;48.546;9.896;2022-12-07T03:08:13;12.77;;;8.68;;
1402;SDS011;696;48.546;9.896;2022-12-07T03:10:55;16.80;;;10.07;;
1402;SDS011;696;48.546;9.896;2022-12-07T03:13:44;19.55;;;10.40;;
1402;SDS011;696;48.546;9.896;2022-12-07T03:16:17;15.80;;;9.07;;
1402;SDS011;696;48.546;9.896;2022-12-07T03:18:57;15.13;;;9.88;;
1402;SDS011;696;48.546;9.896;2022-12-07T03:21:26;19.55;;;10.85;;
1402;SDS011;696;48.546;9.896;2022-12-07T03:23:54;19.38;;;9.95;;
1402;SDS011;696;48.546;9.896;2022-12-07T03:26:23;19.38;;;12.15;;
1402;SDS011;696;48.546;9.896;2022-12-07T03:28:52;17.63;;;11.05;;
1402;SDS011;696;48.546;9.896;2022-12-07T03:31:33;21.20;;;12.55;;
1402;SDS011;696;48.546;9.896;2022-12-07T03:34:03;19.13;;;12.13;;
1402;SDS011;696;48.546;9.896;2022-12-07T03:36:47;21.35;;;12.18;;
1402;SDS011;696;48.546;9.896;2022-12-07T03:44:16;20.95;;;11.50;;
1402;SDS011;696;48.546;9.896;2022-12-07T03:46:56;21.08;;;11.93;;
1402;SDS011;696;48.546;9.896;2022-12-07T03:52:35;19.05;;;12.52;;
1402;SDS011;696;48.546;9.896;2022-12-07T03:57:50;22.55;;;13.77;;
1402;SDS011;696;48.546;9.896;2022-12-07T04:00:18;26.23;;;13.32;;
1402;SDS011;696;48.546;9.896;2022-12-07T04:02:44;22.88;;;12.88;;
1402;SDS011;696;48.546;9.896;2022-12-07T04:05:10;26.83;;;12.48;;
1402;SDS011;696;48.546;9.896;2022-12-07T04:07:35;21.23;;;12.63;;
1402;SDS011;696;48.546;9.896;2022-12-07T04:10:01;29.98;;;13.45;;
1402;SDS011;696;48.546;9.896;2022-12-07T04:12:26;21.67;;;13.20;;
1402;SDS011;696;48.546;9.896;2022-12-07T04:14:51;22.30;;;12.63;;
1402;SDS011;696;48.546;9.896;2022-12-07T04:17:17;22.58;;;12.88;;
1402;SDS011;696;48.546;9.896;2022-12-07T04:19:42;23.92;;;13.70;;
1402;SDS011;696;48.546;9.896;2022-12-07T04:22:07;23.92;;;13.73;;
1402;SDS011;696;48.546;9.896;2022-12-07T04:24:33;19.38;;;13.35;;
1402;SDS011;696;48.546;9.896;2022-12-07T04:26:59;22.17;;;12.50;;
1402;SDS011;696;48.546;9.896;2022-12-07T04:29:24;19.67;;;12.38;;
1402;SDS011;696;48.546;9.896;2022-12-07T04:31:50;21.08;;;12.18;;
1402;SDS011;696;48.546;9.896;2022-12-07T04:34:16;23.70;;;13.38;;
1402;SDS011;696;48.546;9.896;2022-12-07T04:36:42;22.23;;;12.23;;
1402;SDS011;696;48.546;9.896;2022-12-07T04:39:09;21.40;;;12.75;;
1402;SDS011;696;48.546;9.896;2022-12-07T04:41:43;19.80;;;13.07;;
1402;SDS011;696;48.546;9.896;2022-12-07T04:44:08;19.27;;;12.98;;
1402;SDS011;696;48.546;9.896;2022-12-07T04:46:34;21.33;;;13.13;;
1402;SDS011;696;48.546;9.896;2022-12-07T04:48:59;26.95;;;13.70;;
1402;SDS011;696;48.546;9.896;2022-12-07T04:51:28;23.33;;;14.02;;
1402;SDS011;696;48.546;9.896;2022-12-07T04:53:54;22.85;;;12.63;;
1402;SDS011;696;48.546;9.896;2022-12-07T04:56:20;23.60;;;13.55;;
1402;SDS011;696;48.546;9.896;2022-12-07T04:58:46;19.48;;;12.48;;
1402;SDS011;696;48.546;9.896;2022-12-07T05:01:12;19.50;;;12.32;;
1402;SDS011;696;48.546;9.896;2022-12-07T05:03:38;25.60;;;13.25;;
1402;SDS011;696;48.546;9.896;2022-12-07T05:06:04;19.83;;;13.18;;
1402;SDS011;696;48.546;9.896;2022-12-07T05:08:29;31.05;;;12.93;;
1402;SDS011;696;48.546;9.896;2022-12-07T05:10:55;21.60;;;12.70;;
1402;SDS011;696;48.546;9.896;2022-12-07T05:13:20;24.35;;;13.20;;
1402;SDS011;696;48.546;9.896;2022-12-07T05:15:46;23.75;;;13.10;;
1402;SDS011;696;48.546;9.896;2022-12-07T05:18:12;23.95;;;13.88;;
1402;SDS011;696;48.546;9.896;2022-12-07T05:20:38;24.45;;;14.10;;
1402;SDS011;696;48.546;9.896;2022-12-07T05:23:04;23.17;;;13.23;;
1402;SDS011;696;48.546;9.896;2022-12-07T05:25:29;24.70;;;14.10;;
1402;SDS011;696;48.546;9.896;2022-12-07T05:27:55;26.17;;;13.27;;
1402;SDS011;696;48.546;9.896;2022-12-07T05:30:20;24.17;;;13.00;;
1402;SDS011;696;48.546;9.896;2022-12-07T05:32:46;26.00;;;14.45;;
1402;SDS011;696;48.546;9.896;2022-12-07T05:35:11;23.52;;;14.55;;
1402;SDS011;696;48.546;9.896;2022-12-07T05:37:36;24.48;;;14.07;;
1402;SDS011;696;48.546;9.896;2022-12-07T05:40:02;22.77;;;13.15;;
1402;SDS011;696;48.546;9.896;2022-12-07T05:42:29;24.85;;;14.90;;
1402;SDS011;696;48.546;9.896;2022-12-07T05:44:54;21.80;;;14.20;;
1402;SDS011;696;48.546;9.896;2022-12-07T05:47:19;26.27;;;14.50;;
1402;SDS011;696;48.546;9.896;2022-12-07T05:49:45;23.50;;;13.85;;
1402;SDS011;696;48.546;9.896;2022-12-07T05:52:10;26.95;;;14.00;;
1402;SDS011;696;48.546;9.896;2022-12-07T05:54:36;23.85;;;13.25;;
1402;SDS011;696;48.546;9.896;2022-12-07T05:57:01;21.35;;;13.80;;
1402;SDS011;696;48.546;9.896;2022-12-07T05:59:26;21.75;;;13.45;;
1402;SDS011;696;48.546;9.896;2022-12-07T06:01:57;30.80;;;15.00;;
1402;SDS011;696;48.546;9.896;2022-12-07T06:04:27;27.90;;;14.18;;
1402;SDS011;696;48.546;9.896;2022-12-07T06:06:54;27.25;;;13.38;;
1402;SDS011;696;48.546;9.896;2022-12-07T06:09:20;26.38;;;12.50;;
1402;SDS011;696;48.546;9.896;2022-12-07T06:11:46;26.25;;;13.73;;
1402;SDS011;696;48.546;9.896;2022-12-07T06:14:30;31.40;;;13.63;;
1402;SDS011;696;48.546;9.896;2022-12-07T06:16:55;22.10;;;14.10;;
1402;SDS011;696;48.546;9.896;2022-12-07T06:19:20;22.25;;;13.18;;
1402;SDS011;696;48.546;9.896;2022-12-07T06:21:46;27.35;;;14.48;;
1402;SDS011;696;48.546;9.896;2022-12-07T06:24:12;24.67;;;13.57;;
1402;SDS011;696;48.546;9.896;2022-12-07T06:26:38;29.98;;;14.18;;
1402;SDS011;696;48.546;9.896;2022-12-07T06:29:04;22.65;;;13.30;;
1402;SDS011;696;48.546;9.896;2022-12-07T06:31:30;24.05;;;13.57;;
1402;SDS011;696;48.546;9.896;2022-12-07T06:34:02;25.00;;;13.95;;
1402;SDS011;696;48.546;9.896;2022-12-07T06:36:35;29.27;;;13.32;;
1402;SDS011;696;48.546;9.896;2022-12-07T06:39:00;23.55;;;13.60;;
1402;SDS011;696;48.546;9.896;2022-12-07T06:41:26;24.23;;;13.30;;
1402;SDS011;696;48.546;9.896;2022-12-07T06:43:51;20.05;;;12.63;;
1402;SDS011;696;48.546;9.896;2022-12-07T06:46:17;25.50;;;13.10;;
1402;SDS011;696;48.546;9.896;2022-12-07T06:48:42;18.38;;;12.15;;
1402;SDS011;696;48.546;9.896;2022-12-07T06:51:08;22.00;;;13.10;;
1402;SDS011;696;48.546;9.896;2022-12-07T06:53:33;25.92;;;13.10;;
1402;SDS011;696;48.546;9.896;2022-12-07T06:55:59;20.17;;;12.15;;
1402;SDS011;696;48.546;9.896;2022-12-07T06:58:25;19.92;;;11.05;;
1402;SDS011;696;48.546;9.896;2022-12-07T07:00:50;22.00;;;11.52;;
1402;SDS011;696;48.546;9.896;2022-12-07T07:03:16;18.98;;;12.02;;
1402;SDS011;696;48.546;9.896;2022-12-07T07:05:42;17.52;;;10.10;;
1402;SDS011;696;48.546;9.896;2022-12-07T07:08:07;17.35;;;10.20;;
1402;SDS011;696;48.546;9.896;2022-12-07T07:10:33;24.67;;;10.70;;
1402;SDS011;696;48.546;9.896;2022-12-07T07:12:58;16.95;;;10.77;;
1402;SDS011;696;48.546;9.896;2022-12-07T07:15:24;17.55;;;9.80;;
1402;SDS011;696;48.546;9.896;2022-12-07T07:17:49;21.27;;;10.32;;
1402;SDS011;696;48.546;9.896;2022-12-07T07:20:15;19.48;;;10.75;;
1402;SDS011;696;48.546;9.896;2022-12-07T07:22:40;16.45;;;10.35;;
1402;SDS011;696;48.546;9.896;2022-12-07T07:25:06;16.92;;;9.20;;
1402;SDS011;696;48.546;9.896;2022-12-07T07:27:31;13.38;;;9.45;;
1402;SDS011;696;48.546;9.896;2022-12-07T07:29:57;16.45;;;9.63;;
1402;SDS011;696;48.546;9.896;2022-12-07T07:32:22;15.75;;;10.07;;
1402;SDS011;696;48.546;9.896;2022-12-07T07:34:48;20.15;;;10.10;;
1402;SDS011;696;48.546;9.896;2022-12-07T07:37:13;19.58;;;9.45;;
1402;SDS011;696;48.546;9.896;2022-12-07T07:39:39;17.80;;;9.27;;
1402;SDS011;696;48.546;9.896;2022-12-07T07:42:04;14.40;;;8.98;;
1402;SDS011;696;48.546;9.896;2022-12-07T07:44:30;20.35;;;9.20;;
1402;SDS011;696;48.546;9.896;2022-12-07T07:46:55;20.70;;;9.32;;
1402;SDS011;696;48.546;9.896;2022-12-07T07:49:21;16.70;;;10.27;;
1402;SDS011;696;48.546;9.896;2022-12-07T07:51:46;14.60;;;8.93;;
1402;SDS011;696;48.546;9.896;2022-12-07T07:54:12;13.65;;;8.70;;
1402;SDS011;696;48.546;9.896;2022-12-07T07:56:37;14.27;;;8.93;;
1402;SDS011;696;48.546;9.896;2022-12-07T07:59:02;15.40;;;9.60;;
1402;SDS011;696;48.546;9.896;2022-12-07T08:01:28;14.00;;;9.00;;
1402;SDS011;696;48.546;9.896;2022-12-07T08:03:53;14.52;;;9.13;;
1402;SDS011;696;48.546;9.896;2022-12-07T08:06:18;15.75;;;9.50;;
1402;SDS011;696;48.546;9.896;2022-12-07T08:08:44;15.32;;;9.38;;
1402;SDS011;696;48.546;9.896;2022-12-07T08:11:09;27.55;;;15.95;;
1402;SDS011;696;48.546;9.896;2022-12-07T08:13:35;23.38;;;12.93;;
1402;SDS011;696;48.546;9.896;2022-12-07T08:16:05;36.05;;;19.42;;
1402;SDS011;696;48.546;9.896;2022-12-07T08:18:34;43.42;;;19.63;;
1402;SDS011;696;48.546;9.896;2022-12-07T08:21:01;28.05;;;16.05;;
1402;SDS011;696;48.546;9.896;2022-12-07T08:23:26;27.85;;;14.57;;
1402;SDS011;696;48.546;9.896;2022-12-07T08:25:52;23.20;;;11.55;;
1402;SDS011;696;48.546;9.896;2022-12-07T08:28:17;14.27;;;9.18;;
1402;SDS011;696;48.546;9.896;2022-12-07T08:30:43;17.90;;;9.05;;
1402;SDS011;696;48.546;9.896;2022-12-07T08:33:08;15.55;;;8.52;;
1402;SDS011;696;48.546;9.896;2022-12-07T08:35:35;15.23;;;8.57;;
1402;SDS011;696;48.546;9.896;2022-12-07T08:38:00;10.55;;;7.07;;
1402;SDS011;696;48.546;9.896;2022-12-07T08:40:27;11.30;;;6.55;;
1402;SDS011;696;48.546;9.896;2022-12-07T08:42:53;10.02;;;6.80;;
1402;SDS011;696;48.546;9.896;2022-12-07T08:45:19;11.23;;;6.47;;
1402;SDS011;696;48.546;9.896;2022-12-07T08:47:48;10.57;;;6.47;;
1402;SDS011;696;48.546;9.896;2022-12-07T08:50:16;7.93;;;5.93;;
1402;SDS011;696;48.546;9.896;2022-12-07T08:52:42;9.63;;;6.53;;
1402;SDS011;696;48.546;9.896;2022-12-07T08:55:09;9.07;;;6.25;;
1402;SDS011;696;48.546;9.896;2022-12-07T08:57:36;10.80;;;6.22;;
1402;SDS011;696;48.546;9.896;2022-12-07T09:00:03;11.20;;;6.60;;
1402;SDS011;696;48.546;9.896;2022-12-07T09:02:30;10.95;;;6.90;;
1402;SDS011;696;48.546;9.896;2022-12-07T09:04:56;7.82;;;5.60;;
1402;SDS011;696;48.546;9.896;2022-12-07T09:07:21;11.38;;;6.10;;
1402;SDS011;696;48.546;9.896;2022-12-07T09:09:46;11.88;;;5.68;;
1402;SDS011;696;48.546;9.896;2022-12-07T09:12:12;11.07;;;5.70;;
1402;SDS011;696;48.546;9.896;2022-12-07T09:14:37;11.98;;;6.75;;
1402;SDS011;696;48.546;9.896;2022-12-07T09:17:09;8.82;;;5.70;;
1402;SDS011;696;48.546;9.896;2022-12-07T09:19:36;11.18;;;6.28;;
1402;SDS011;696;48.546;9.896;2022-12-07T09:22:02;11.18;;;6.55;;
1402;SDS011;696;48.546;9.896;2022-12-07T09:24:29;9.48;;;6.53;;
1402;SDS011;696;48.546;9.896;2022-12-07T09:26:55;9.20;;;5.60;;
1402;SDS011;696;48.546;9.896;2022-12-07T09:29:20;10.43;;;6.65;;
1402;SDS011;696;48.546;9.896;2022-12-07T09:31:45;8.98;;;6.07;;
1402;SDS011;696;48.546;9.896;2022-12-07T09:34:11;9.07;;;5.88;;
1402;SDS011;696;48.546;9.896;2022-12-07T09:36:36;7.72;;;5.38;;
1402;SDS011;696;48.546;9.896;2022-12-07T09:39:02;9.18;;;5.82;;
1402;SDS011;696;48.546;9.896;2022-12-07T09:41:29;9.50;;;4.72;;
1402;SDS011;696;48.546;9.896;2022-12-07T09:43:57;8.07;;;5.18;;
1402;SDS011;696;48.546;9.896;2022-12-07T09:46:28;4.93;;;3.88;;
1402;SDS011;696;48.546;9.896;2022-12-07T09:48:57;5.72;;;3.85;;
1402;SDS011;696;48.546;9.896;2022-12-07T09:51:22;8.85;;;3.92;;
1402;SDS011;696;48.546;9.896;2022-12-07T09:53:48;5.00;;;3.83;;
1402;SDS011;696;48.546;9.896;2022-12-07T09:56:16;6.70;;;4.50;;
1402;SDS011;696;48.546;9.896;2022-12-07T09:58:42;6.30;;;3.92;;
1402;SDS011;696;48.546;9.896;2022-12-07T10:03:37;5.00;;;3.92;;
1402;SDS011;696;48.546;9.896;2022-12-07T10:06:04;7.38;;;3.75;;
1402;SDS011;696;48.546;9.896;2022-12-07T10:08:30;4.65;;;3.53;;
1402;SDS011;696;48.546;9.896;2022-12-07T10:10:56;7.03;;;3.85;;
1402;SDS011;696;48.546;9.896;2022-12-07T10:13:36;3.88;;;3.17;;
1402;SDS011;696;48.546;9.896;2022-12-07T10:16:29;5.20;;;3.65;;
1402;SDS011;696;48.546;9.896;2022-12-07T10:18:56;4.70;;;3.67;;
1402;SDS011;696;48.546;9.896;2022-12-07T10:21:25;7.22;;;3.85;;
1402;SDS011;696;48.546;9.896;2022-12-07T10:24:04;4.45;;;3.40;;
1402;SDS011;696;48.546;9.896;2022-12-07T10:26:47;5.47;;;3.90;;
1402;SDS011;696;48.546;9.896;2022-12-07T10:29:17;5.55;;;3.72;;
1402;SDS011;696;48.546;9.896;2022-12-07T10:31:45;4.28;;;3.38;;
1402;SDS011;696;48.546;9.896;2022-12-07T10:34:27;7.93;;;4.35;;
1402;SDS011;696;48.546;9.896;2022-12-07T10:37:06;5.50;;;4.07;;
1402;SDS011;696;48.546;9.896;2022-12-07T10:39:45;5.57;;;4.03;;
1402;SDS011;696;48.546;9.896;2022-12-07T10:45:17;4.22;;;3.35;;
1402;SDS011;696;48.546;9.896;2022-12-07T10:50:28;5.20;;;3.78;;
1402;SDS011;696;48.546;9.896;2022-12-07T10:56:25;6.00;;;3.75;;
1402;SDS011;696;48.546;9.896;2022-12-07T11:10:05;4.55;;;3.05;;
1402;SDS011;696;48.546;9.896;2022-12-07T11:18:13;5.65;;;2.78;;
1402;SDS011;696;48.546;9.896;2022-12-07T11:21:00;6.25;;;2.88;;
1402;SDS011;696;48.546;9.896;2022-12-07T11:26:01;5.43;;;3.38;;
1402;SDS011;696;48.546;9.896;2022-12-07T11:31:22;5.30;;;2.95;;
1402;SDS011;696;48.546;9.896;2022-12-07T11:33:53;5.72;;;3.00;;
1402;SDS011;696;48.546;9.896;2022-12-07T11:36:36;4.18;;;2.90;;
1402;SDS011;696;48.546;9.896;2022-12-07T11:39:04;4.38;;;2.97;;
1402;SDS011;696;48.546;9.896;2022-12-07T11:41:37;3.47;;;2.78;;
1402;SDS011;696;48.546;9.896;2022-12-07T11:49:13;2.63;;;2.28;;
1402;SDS011;696;48.546;9.896;2022-12-07T11:51:44;12.43;;;3.00;;
1402;SDS011;696;48.546;9.896;2022-12-07T11:54:23;4.40;;;2.85;;
1402;SDS011;696;48.546;9.896;2022-12-07T11:56:55;3.08;;;2.33;;
1402;SDS011;696;48.546;9.896;2022-12-07T12:01:53;4.63;;;2.60;;
1402;SDS011;696;48.546;9.896;2022-12-07T12:07:14;7.60;;;2.55;;
1402;SDS011;696;48.546;9.896;2022-12-07T12:20:42;5.07;;;2.20;;
1402;SDS011;696;48.546;9.896;2022-12-07T12:23:11;5.57;;;2.17;;
1402;SDS011;696;48.546;9.896;2022-12-07T12:25:45;2.92;;;2.42;;
1402;SDS011;696;48.546;9.896;2022-12-07T12:28:49;4.63;;;2.38;;
1402;SDS011;696;48.546;9.896;2022-12-07T12:33:46;2.22;;;1.70;;
1402;SDS011;696;48.546;9.896;2022-12-07T12:46:55;3.88;;;2.55;;
1402;SDS011;696;48.546;9.896;2022-12-07T12:51:48;2.75;;;2.28;;
1402;SDS011;696;48.546;9.896;2022-12-07T12:54:18;3.53;;;2.60;;
1402;SDS011;696;48.546;9.896;2022-12-07T13:13:03;4.50;;;3.35;;
1402;SDS011;696;48.546;9.896;2022-12-07T13:15:39;4.93;;;3.13;;
1402;SDS011;696;48.546;9.896;2022-12-07T13:20:53;5.15;;;3.03;;
1402;SDS011;696;48.546;9.896;2022-12-07T13:28:44;6.40;;;2.78;;
1402;SDS011;696;48.546;9.896;2022-12-07T13:31:16;2.97;;;2.38;;
1402;SDS011;696;48.546;9.896;2022-12-07T13:33:46;4.43;;;2.97;;
1402;SDS011;696;48.546;9.896;2022-12-07T13:36:14;4.28;;;2.97;;
1402;SDS011;696;48.546;9.896;2022-12-07T13:38:49;6.75;;;3.13;;
1402;SDS011;696;48.546;9.896;2022-12-07T13:41:18;4.53;;;3.00;;
1402;SDS011;696;48.546;9.896;2022-12-07T13:43:45;6.22;;;2.83;;
1402;SDS011;696;48.546;9.896;2022-12-07T13:46:11;4.05;;;2.85;;
1402;SDS011;696;48.546;9.896;2022-12-07T13:48:46;3.00;;;2.60;;
1402;SDS011;696;48.546;9.896;2022-12-07T13:51:33;5.95;;;3.42;;
1402;SDS011;696;48.546;9.896;2022-12-07T13:54:01;4.88;;;3.20;;
1402;SDS011;696;48.546;9.896;2022-12-07T13:56:33;3.42;;;2.92;;
1402;SDS011;696;48.546;9.896;2022-12-07T13:58:59;5.28;;;3.05;;
1402;SDS011;696;48.546;9.896;2022-12-07T14:01:25;3.13;;;2.63;;
1402;SDS011;696;48.546;9.896;2022-12-07T14:03:50;6.22;;;2.88;;
1402;SDS011;696;48.546;9.896;2022-12-07T14:06:22;4.43;;;2.88;;
1402;SDS011;696;48.546;9.896;2022-12-07T14:11:55;3.78;;;2.70;;
1402;SDS011;696;48.546;9.896;2022-12-07T14:14:30;7.78;;;3.60;;
1402;SDS011;696;48.546;9.896;2022-12-07T14:16:58;6.15;;;3.78;;
1402;SDS011;696;48.546;9.896;2022-12-07T14:22:15;6.60;;;3.67;;
1402;SDS011;696;48.546;9.896;2022-12-07T14:24:44;5.07;;;3.35;;
1402;SDS011;696;48.546;9.896;2022-12-07T14:27:18;5.18;;;3.35;;
1402;SDS011;696;48.546;9.896;2022-12-07T14:29:44;5.53;;;3.53;;
1402;SDS011;696;48.546;9.896;2022-12-07T14:34:58;4.95;;;3.17;;
1402;SDS011;696;48.546;9.896;2022-12-07T14:37:35;5.28;;;3.47;;
1402;SDS011;696;48.546;9.896;2022-12-07T14:40:00;3.20;;;2.63;;
1402;SDS011;696;48.546;9.896;2022-12-07T14:42:27;5.20;;;3.50;;
1402;SDS011;696;48.546;9.896;2022-12-07T14:44:53;8.45;;;4.07;;
1402;SDS011;696;48.546;9.896;2022-12-07T14:47:19;7.40;;;4.45;;
1402;SDS011;696;48.546;9.896;2022-12-07T14:49:44;7.25;;;4.60;;
1402;SDS011;696;48.546;9.896;2022-12-07T14:52:14;6.80;;;4.35;;
1402;SDS011;696;48.546;9.896;2022-12-07T14:54:42;7.57;;;4.07;;
1402;SDS011;696;48.546;9.896;2022-12-07T14:57:09;5.93;;;3.83;;
1402;SDS011;696;48.546;9.896;2022-12-07T14:59:35;8.85;;;4.32;;
1402;SDS011;696;48.546;9.896;2022-12-07T15:02:00;8.43;;;4.43;;
1402;SDS011;696;48.546;9.896;2022-12-07T15:04:26;7.60;;;4.15;;
1402;SDS011;696;48.546;9.896;2022-12-07T15:06:55;10.10;;;4.95;;
1402;SDS011;696;48.546;9.896;2022-12-07T15:09:24;7.65;;;4.88;;
1402;SDS011;696;48.546;9.896;2022-12-07T15:11:49;8.35;;;5.22;;
1402;SDS011;696;48.546;9.896;2022-12-07T15:14:15;8.85;;;5.35;;
1402;SDS011;696;48.546;9.896;2022-12-07T15:16:41;10.27;;;5.07;;
1402;SDS011;696;48.546;9.896;2022-12-07T15:19:14;8.27;;;5.72;;
1402;SDS011;696;48.546;9.896;2022-12-07T15:21:41;9.77;;;5.35;;
1402;SDS011;696;48.546;9.896;2022-12-07T15:24:08;10.55;;;5.22;;
1402;SDS011;696;48.546;9.896;2022-12-07T15:26:34;7.63;;;5.32;;
1402;SDS011;696;48.546;9.896;2022-12-07T15:28:59;6.15;;;4.70;;
1402;SDS011;696;48.546;9.896;2022-12-07T15:31:25;9.57;;;5.65;;
1402;SDS011;696;48.546;9.896;2022-12-07T15:33:50;9.35;;;5.80;;
1402;SDS011;696;48.546;9.896;2022-12-07T15:36:20;8.20;;;4.88;;
1402;SDS011;696;48.546;9.896;2022-12-07T15:38:47;14.77;;;6.07;;
1402;SDS011;696;48.546;9.896;2022-12-07T15:41:12;9.25;;;6.18;;
1402;SDS011;696;48.546;9.896;2022-12-07T15:43:38;8.05;;;5.32;;
1402;SDS011;696;48.546;9.896;2022-12-07T15:46:22;8.30;;;5.18;;
1402;SDS011;696;48.546;9.896;2022-12-07T15:48:47;10.55;;;6.07;;
1402;SDS011;696;48.546;9.896;2022-12-07T15:51:12;8.18;;;5.35;;
1402;SDS011;696;48.546;9.896;2022-12-07T15:53:38;7.60;;;5.30;;
1402;SDS011;696;48.546;9.896;2022-12-07T15:56:07;11.70;;;5.95;;
1402;SDS011;696;48.546;9.896;2022-12-07T15:58:33;13.15;;;6.75;;
1402;SDS011;696;48.546;9.896;2022-12-07T16:00:58;12.25;;;6.65;;
1402;SDS011;696;48.546;9.896;2022-12-07T16:03:24;11.85;;;7.47;;
1402;SDS011;696;48.546;9.896;2022-12-07T16:05:49;13.75;;;8.48;;
1402;SDS011;696;48.546;9.896;2022-12-07T16:08:18;10.10;;;7.70;;
1402;SDS011;696;48.546;9.896;2022-12-07T16:10:43;15.27;;;7.25;;
1402;SDS011;696;48.546;9.896;2022-12-07T16:13:09;10.38;;;6.75;;
1402;SDS011;696;48.546;9.896;2022-12-07T16:15:39;9.82;;;6.90;;
1402;SDS011;696;48.546;9.896;2022-12-07T16:18:04;15.52;;;7.35;;
1402;SDS011;696;48.546;9.896;2022-12-07T16:20:30;11.05;;;7.30;;
1402;SDS011;696;48.546;9.896;2022-12-07T16:22:55;10.05;;;7.45;;
1402;SDS011;696;48.546;9.896;2022-12-07T16:25:20;11.02;;;6.38;;
1402;SDS011;696;48.546;9.896;2022-12-07T16:27:46;11.50;;;7.00;;
1402;SDS011;696;48.546;9.896;2022-12-07T16:30:11;10.68;;;6.15;;
1402;SDS011;696;48.546;9.896;2022-12-07T16:32:37;13.38;;;6.97;;
1402;SDS011;696;48.546;9.896;2022-12-07T16:35:02;15.52;;;7.13;;
1402;SDS011;696;48.546;9.896;2022-12-07T16:37:28;13.40;;;6.57;;
1402;SDS011;696;48.546;9.896;2022-12-07T16:39:53;10.25;;;5.90;;
1402;SDS011;696;48.546;9.896;2022-12-07T16:42:19;10.00;;;5.85;;
1402;SDS011;696;48.546;9.896;2022-12-07T16:44:44;9.20;;;5.53;;
1402;SDS011;696;48.546;9.896;2022-12-07T16:47:09;8.80;;;5.93;;
1402;SDS011;696;48.546;9.896;2022-12-07T16:49:35;15.27;;;7.53;;
1402;SDS011;696;48.546;9.896;2022-12-07T16:52:00;11.95;;;7.35;;
1402;SDS011;696;48.546;9.896;2022-12-07T16:54:25;14.48;;;8.73;;
1402;SDS011;696;48.546;9.896;2022-12-07T16:56:55;11.55;;;7.53;;
1402;SDS011;696;48.546;9.896;2022-12-07T16:59:21;14.95;;;8.75;;
1402;SDS011;696;48.546;9.896;2022-12-07T17:01:46;12.27;;;7.38;;
1402;SDS011;696;48.546;9.896;2022-12-07T17:04:11;21.65;;;7.88;;
1402;SDS011;696;48.546;9.896;2022-12-07T17:06:37;14.35;;;8.43;;
1402;SDS011;696;48.546;9.896;2022-12-07T17:09:02;14.65;;;6.90;;
1402;SDS011;696;48.546;9.896;2022-12-07T17:11:29;10.23;;;6.07;;
1402;SDS011;696;48.546;9.896;2022-12-07T17:13:58;8.80;;;6.30;;
1402;SDS011;696;48.546;9.896;2022-12-07T17:16:42;10.27;;;6.20;;
1402;SDS011;696;48.546;9.896;2022-12-07T17:19:08;10.40;;;6.68;;
1402;SDS011;696;48.546;9.896;2022-12-07T17:21:35;14.60;;;6.35;;
1402;SDS011;696;48.546;9.896;2022-12-07T17:24:00;10.63;;;6.50;;
1402;SDS011;696;48.546;9.896;2022-12-07T17:26:27;11.13;;;6.50;;
1402;SDS011;696;48.546;9.896;2022-12-07T17:28:53;11.10;;;6.38;;
1402;SDS011;696;48.546;9.896;2022-12-07T17:31:20;11.23;;;6.32;;
1402;SDS011;696;48.546;9.896;2022-12-07T17:33:46;11.18;;;6.63;;
1402;SDS011;696;48.546;9.896;2022-12-07T17:36:12;9.77;;;6.30;;
1402;SDS011;696;48.546;9.896;2022-12-07T17:38:39;11.27;;;6.93;;
1402;SDS011;696;48.546;9.896;2022-12-07T17:41:09;14.25;;;7.22;;